Enter the Airport ICAO Code

Search by Airport or City

Current Weather

LEST | Santiago de Compostela Airport

Santiago de Compostela, Galicia, Spain

Last Update 9 Minutes Ago

Clear Sky

Temperature of 25 ºC

Moderate Winds from NorthEast

Temperature

25 ºC

Dew Point Temperature

11 ºC

Relative Humidity

41.65 %

Wind Direction

NorthEast (050º, Ranging from 020º to 100º)

Wind Velocity

26 km/h (14 kt)

Gusts

None

Visibility

No Significant Reductions

Sea Level Pressure

1023 hPa (Hectopascals)

Layers of Clouds

None

METAR LEST 131130Z 05014KT 020V100 CAVOK 25/11 Q1023 NOSIG

Weather Forecast

LEST | Santiago de Compostela Airport

Santiago de Compostela, Galicia, Spain

Forecast valid for the next 24 Hours

From now on it is expected:

Sky with Few Clouds

Moderate Winds from NorthEast

From now on it is expected 9 hours with intermittent periods of:

Moderate Winds from NorthEast with Gusts

In 8 to 12 hours it is expected the begining of:

Light to Moderate Winds from NorthEast

In 22 to 24 hours it is expected the begining of:

Moderate Winds from North

Maximum Temperature

28 ºC in 2 Hours

Minimum Temperature

13 ºC in 18 Hours

TAF LEST 131100Z 1312/1412 03015KT 9999 FEW040 TX28/1314Z TN13/1406Z PROB40 TEMPO 1312/1321 03015G25KT BECMG 1320/1324 04005KT BECMG 1410/1412 02015KT